Time;durP1;ratioP1;P1;durP2;ratioP2;P2;SDS_P1;SDS_P2;PMS_P1;PMS_P2;Temp;Humidity;BMP_temperature;BMP_pressure;BME280_temperature;BME280_humidity;BME280_pressure;Samples;Min_cycle;Max_cycle;Signal;HPM_P1;HPM_P2
2021/12/05 00:20:20;;;;;;;5.30;2.80;;;4.90;1.00;5.90;99068.00;;;;4933374;29;20485;-84
2021/12/05 00:22:49;;;;;;;8.50;3.20;;;4.90;1.00;5.90;99070.00;;;;4962877;28;20502;-84
2021/12/05 00:25:26;;;;;;;6.20;3.37;;;4.90;1.00;5.90;99068.00;;;;4975756;28;20600;-84
2021/12/05 00:28:14;;;;;;;8.20;3.47;;;4.90;1.00;5.80;99051.00;;;;4958121;29;20579;-84
2021/12/05 00:31:05;;;;;;;7.20;3.40;;;5.00;1.00;5.70;99013.00;;;;4956841;28;20487;-80
2021/12/05 00:33:53;;;;;;;7.23;4.00;;;4.90;1.00;5.90;98812.00;;;;4958633;28;20480;-80
2021/12/05 00:42:20;;;;;;;6.20;2.60;;;4.80;1.00;6.10;99075.00;;;;4958114;28;20463;-84
2021/12/05 00:47:47;;;;;;;5.13;2.63;;;5.00;1.00;6.10;99091.00;;;;4975013;28;21068;-83
2021/12/05 00:50:58;;;;;;;4.87;2.90;;;4.90;1.00;6.10;99063.00;;;;4979794;28;20432;-80
2021/12/05 00:56:16;;;;;;;7.70;2.90;;;4.90;1.00;6.20;99088.00;;;;4948299;29;20491;-84
2021/12/05 01:04:41;;;;;;;5.00;3.10;;;4.90;1.00;6.10;99028.00;;;;4955702;29;20460;-79
2021/12/05 01:07:25;;;;;;;5.30;2.73;;;4.90;1.00;6.00;99026.00;;;;4956504;28;20503;-82
2021/12/05 01:10:08;;;;;;;6.40;3.00;;;4.80;1.00;6.00;99084.00;;;;4963398;28;20464;-80
2021/12/05 01:15:38;;;;;;;6.47;3.23;;;4.80;1.00;6.10;99103.00;;;;4968336;28;20457;-80
2021/12/05 01:18:12;;;;;;;7.10;3.23;;;4.70;1.00;6.20;99084.00;;;;4963884;28;20490;-81
2021/12/05 01:20:48;;;;;;;8.27;3.57;;;4.80;1.00;6.10;99047.00;;;;4996875;23;20486;-76
2021/12/05 01:23:26;;;;;;;6.30;3.40;;;4.90;1.00;6.00;99066.00;;;;4995809;28;20459;-79
2021/12/05 01:26:01;;;;;;;6.73;3.10;;;4.90;1.00;6.00;99043.00;;;;5005583;28;20454;-80
2021/12/05 01:28:43;;;;;;;7.93;3.10;;;4.80;1.00;6.00;99079.00;;;;5015735;28;20446;-80
2021/12/05 01:31:17;;;;;;;5.60;2.83;;;4.90;1.00;6.10;99072.00;;;;5028919;28;20453;-75
2021/12/05 01:33:56;;;;;;;8.17;3.20;;;4.90;1.00;6.00;99036.00;;;;5036533;28;21005;-74
2021/12/05 01:36:33;;;;;;;7.30;3.03;;;4.90;1.00;5.90;99070.00;;;;5020260;28;20501;-76
2021/12/05 01:39:21;;;;;;;4.60;2.70;;;4.90;1.00;5.90;99024.00;;;;4996344;28;20533;-76
2021/12/05 01:42:27;;;;;;;6.83;2.90;;;4.90;1.00;5.80;99057.00;;;;4976282;28;20482;-76
2021/12/05 01:48:04;;;;;;;8.03;3.37;;;4.90;1.00;5.90;99028.00;;;;4965753;28;20450;-76
2021/12/05 01:51:16;;;;;;;8.90;3.47;;;4.90;1.00;5.90;99063.00;;;;4976355;28;21011;-76
2021/12/05 01:54:03;;;;;;;6.17;3.00;;;4.90;1.00;5.90;99026.00;;;;4990120;28;20478;-78
2021/12/05 02:08:02;;;;;;;6.87;3.00;;;4.90;1.00;5.90;99048.00;;;;4990378;28;20439;-77
2021/12/05 02:39:14;;;;;;;9.40;2.93;;;4.60;1.00;5.50;99028.00;;;;5001375;28;20486;-81
2021/12/05 02:41:45;;;;;;;8.13;3.20;;;4.70;1.00;5.60;99040.00;;;;4992758;28;20518;-77
2021/12/05 02:44:20;;;;;;;10.53;3.10;;;4.70;1.00;5.70;99031.00;;;;4978162;28;20836;-78
2021/12/05 02:46:58;;;;;;;6.50;3.10;;;4.80;1.00;5.70;99033.00;;;;4992666;28;20458;-76
2021/12/05 02:49:28;;;;;;;9.60;3.70;;;4.80;1.00;5.60;99027.00;;;;4995960;28;20456;-77
2021/12/05 02:52:00;;;;;;;7.00;2.80;;;4.80;1.00;5.70;99021.00;;;;5013635;28;20474;-77
2021/12/05 02:54:38;;;;;;;6.93;3.40;;;4.80;1.00;5.60;99052.00;;;;5017120;28;20465;-77
2021/12/05 02:57:09;;;;;;;9.37;3.10;;;4.80;1.00;5.50;99022.00;;;;4997907;28;20462;-78
2021/12/05 02:59:45;;;;;;;12.83;3.77;;;4.70;1.00;5.60;99026.00;;;;5001531;28;20546;-77
2021/12/05 03:02:17;;;;;;;10.40;3.40;;;4.70;1.00;5.60;99019.00;;;;4990521;28;20454;-78
2021/12/05 03:04:52;;;;;;;6.00;3.17;;;4.70;1.00;5.50;99070.00;;;;4999073;28;20807;-77
2021/12/05 03:07:26;;;;;;;7.00;3.07;;;4.60;1.00;5.50;99053.00;;;;4997791;28;20489;-79
2021/12/05 03:09:57;;;;;;;9.87;2.90;;;4.60;1.00;5.50;98986.00;;;;4982089;28;21038;-76
2021/12/05 03:12:26;;;;;;;11.27;4.00;;;4.60;1.00;5.40;99076.00;;;;4986904;28;20458;-77
2021/12/05 03:15:02;;;;;;;8.60;3.43;;;4.60;1.00;5.40;99066.00;;;;5013376;28;20903;-79
2021/12/05 03:17:32;;;;;;;9.90;3.67;;;4.60;1.00;5.40;99058.00;;;;4993990;28;20865;-77
2021/12/05 03:20:01;;;;;;;7.93;3.37;;;4.50;1.00;5.30;99056.00;;;;5008820;28;20502;-80
2021/12/05 03:22:31;;;;;;;6.83;3.50;;;4.50;1.00;5.30;99029.00;;;;4979477;28;20463;-76
2021/12/05 03:25:02;;;;;;;7.20;3.67;;;4.40;1.00;5.30;99066.00;;;;4982821;28;20460;-78
2021/12/05 03:27:32;;;;;;;8.00;3.50;;;4.40;1.00;5.30;99066.00;;;;4997279;28;20495;-77
2021/12/05 03:30:01;;;;;;;10.43;3.60;;;4.30;1.00;5.00;99070.00;;;;4986468;28;20527;-76
2021/12/05 03:32:32;;;;;;;7.63;3.33;;;4.30;1.00;5.10;99072.00;;;;4993377;28;20458;-77
2021/12/05 03:35:02;;;;;;;10.10;4.17;;;4.20;1.00;5.10;99054.00;;;;4995681;28;20602;-77
2021/12/05 03:37:30;;;;;;;10.33;3.90;;;4.30;1.00;5.10;99042.00;;;;4993839;28;20442;-76
2021/12/05 03:40:09;;;;;;;7.30;3.27;;;4.20;1.00;5.00;99055.00;;;;5009745;28;20476;-76
2021/12/05 03:42:38;;;;;;;8.27;3.83;;;4.20;1.00;5.00;99047.00;;;;5013082;28;20455;-77
2021/12/05 03:45:10;;;;;;;11.40;3.90;;;4.10;1.00;5.00;98974.00;;;;4985628;28;20557;-77
2021/12/05 03:47:39;;;;;;;7.67;3.20;;;4.20;1.00;4.90;99014.00;;;;5003598;28;20450;-75
2021/12/05 03:50:12;;;;;;;7.47;3.40;;;4.20;1.00;4.80;99044.00;;;;5014625;28;21071;-78
2021/12/05 03:52:42;;;;;;;9.10;4.00;;;4.10;1.00;4.90;99038.00;;;;4979386;28;20467;-77
2021/12/05 03:55:13;;;;;;;7.80;3.27;;;4.10;1.00;4.90;99022.00;;;;4989917;28;20487;-77
2021/12/05 03:57:42;;;;;;;7.23;3.03;;;4.10;1.00;4.90;99030.00;;;;4991216;28;20530;-78
2021/12/05 04:00:17;;;;;;;11.57;4.00;;;4.10;1.00;5.00;99041.00;;;;5003124;28;20486;-81
2021/12/05 04:02:54;;;;;;;8.30;3.83;;;4.10;1.00;5.10;99037.00;;;;4997308;28;20461;-74
2021/12/05 04:05:27;;;;;;;6.93;2.87;;;4.20;1.00;5.10;99056.00;;;;4999043;28;20450;-74
2021/12/05 04:07:57;;;;;;;11.30;2.97;;;4.20;1.00;5.10;99042.00;;;;4995938;28;20447;-75
2021/12/05 04:10:29;;;;;;;8.50;4.07;;;4.20;1.00;5.10;99058.00;;;;4984246;28;20472;-76
2021/12/05 04:12:58;;;;;;;10.60;3.80;;;4.20;1.00;5.10;99067.00;;;;4979482;28;20440;-75
2021/12/05 04:15:27;;;;;;;16.20;4.10;;;4.20;1.00;5.00;99053.00;;;;4983390;28;20828;-75
2021/12/05 04:17:55;;;;;;;7.53;3.07;;;4.30;1.00;5.00;99035.00;;;;4988952;28;20456;-74
2021/12/05 04:20:25;;;;;;;10.53;4.00;;;4.10;1.00;5.00;99067.00;;;;4984991;28;20529;-73
2021/12/05 04:22:56;;;;;;;10.77;3.20;;;4.20;1.00;4.90;99056.00;;;;4978281;28;20550;-74
2021/12/05 04:25:27;;;;;;;9.37;3.40;;;4.10;1.00;4.90;99044.00;;;;4992853;28;20553;-74
2021/12/05 04:27:57;;;;;;;7.90;3.50;;;4.30;1.00;4.80;99059.00;;;;4989754;28;20454;-75
2021/12/05 04:30:26;;;;;;;8.80;3.30;;;4.10;1.00;4.90;99023.00;;;;4991526;28;20529;-78
2021/12/05 04:32:56;;;;;;;8.77;3.10;;;4.10;1.00;4.90;99082.00;;;;4991268;28;20466;-76
2021/12/05 04:35:25;;;;;;;9.10;3.50;;;4.20;1.00;5.00;99060.00;;;;5002696;28;20478;-75
2021/12/05 04:37:54;;;;;;;8.10;3.30;;;4.10;1.00;5.00;99058.00;;;;4990825;28;20486;-76
2021/12/05 04:40:24;;;;;;;9.03;3.90;;;4.20;1.00;5.00;99054.00;;;;4985238;28;20480;-73
2021/12/05 04:42:54;;;;;;;6.03;2.77;;;4.20;1.00;5.00;99004.00;;;;4976143;28;20501;-74
2021/12/05 04:45:27;;;;;;;8.60;3.10;;;4.20;1.00;5.10;99074.00;;;;4977306;28;20455;-73
2021/12/05 04:48:00;;;;;;;9.40;3.70;;;4.20;1.00;5.10;99050.00;;;;4993477;28;20442;-73
2021/12/05 04:50:31;;;;;;;8.40;4.03;;;4.20;1.00;5.10;99051.00;;;;4984364;28;20478;-75
2021/12/05 04:53:00;;;;;;;7.00;2.90;;;4.10;1.00;5.10;99058.00;;;;4998319;28;21218;-73
2021/12/05 04:55:30;;;;;;;6.53;3.20;;;4.10;1.00;5.20;99058.00;;;;4988232;28;20868;-73
2021/12/05 04:58:01;;;;;;;8.60;3.67;;;4.10;1.00;5.30;99042.00;;;;4977344;28;20447;-76
2021/12/05 05:00:36;;;;;;;6.80;3.30;;;4.10;1.00;5.40;99061.00;;;;4984317;28;20467;-74
2021/12/05 05:03:05;;;;;;;9.23;3.07;;;4.20;1.00;5.50;99075.00;;;;4982816;28;20964;-74
2021/12/05 05:05:35;;;;;;;9.13;3.80;;;4.30;1.00;5.60;99074.00;;;;4974272;28;21007;-77
2021/12/05 05:08:04;;;;;;;8.33;3.40;;;4.40;1.00;5.70;99063.00;;;;5011025;28;20556;-73
2021/12/05 05:10:35;;;;;;;8.03;3.20;;;4.50;1.00;5.70;99064.00;;;;5011757;28;20473;-74
2021/12/05 05:13:05;;;;;;;6.00;2.90;;;4.50;1.00;5.60;99071.00;;;;4982973;28;20448;-74
2021/12/05 05:15:33;;;;;;;4.93;2.60;;;4.60;1.00;5.60;99074.00;;;;4987396;28;20843;-73
2021/12/05 05:18:04;;;;;;;9.57;2.90;;;4.60;1.00;5.60;99067.00;;;;4985262;28;20463;-73
2021/12/05 05:20:38;;;;;;;7.63;3.17;;;4.60;1.00;5.60;99073.00;;;;4985135;28;20513;-77
2021/12/05 05:23:29;;;;;;;9.80;3.23;;;4.60;1.00;5.60;99099.00;;;;4987483;28;21177;-74
2021/12/05 05:29:09;;;;;;;7.43;3.30;;;4.50;1.00;5.60;99021.00;;;;4989114;28;20793;-74
2021/12/05 05:51:05;;;;;;;7.03;3.33;;;4.10;1.00;5.00;99069.00;;;;4965051;28;20500;-77
2021/12/05 05:53:34;;;;;;;12.07;3.87;;;4.20;1.00;5.10;99066.00;;;;4979546;28;20473;-76
2021/12/05 05:56:04;;;;;;;9.57;4.10;;;4.10;1.00;5.10;99086.00;;;;4991130;28;20940;-74
2021/12/05 05:58:41;;;;;;;9.67;4.73;;;4.10;1.00;5.20;99040.00;;;;5000454;28;20450;-75
2021/12/05 06:01:19;;;;;;;8.40;3.70;;;4.20;1.00;5.30;99105.00;;;;4997210;28;20476;-75
2021/12/05 06:03:49;;;;;;;7.17;3.90;;;4.20;1.00;5.40;99089.00;;;;4990279;28;20458;-75
2021/12/05 06:06:19;;;;;;;8.83;4.17;;;4.30;1.00;5.40;99094.00;;;;4994595;28;21005;-77
2021/12/05 06:08:47;;;;;;;10.73;4.20;;;4.30;1.00;5.40;99103.00;;;;4991192;28;20471;-75
2021/12/05 06:11:18;;;;;;;7.93;4.13;;;4.40;1.00;5.40;99085.00;;;;5004145;28;20467;-76
2021/12/05 06:13:47;;;;;;;13.83;4.40;;;4.40;1.00;5.40;99090.00;;;;5012616;28;20455;-76
2021/12/05 06:16:18;;;;;;;13.20;5.40;;;4.40;1.00;5.60;99102.00;;;;4994970;28;20470;-74
2021/12/05 06:18:47;;;;;;;10.87;4.63;;;4.40;1.00;5.60;99096.00;;;;4992319;28;20501;-75
2021/12/05 06:21:17;;;;;;;7.57;4.10;;;4.40;1.00;5.60;99099.00;;;;4993014;28;20476;-76
2021/12/05 06:23:47;;;;;;;6.60;4.73;;;4.40;1.00;5.40;99109.00;;;;4996642;28;20455;-76
2021/12/05 06:26:21;;;;;;;14.43;4.87;;;4.40;1.00;5.50;99093.00;;;;4991582;28;20513;-75
2021/12/05 06:29:04;;;;;;;7.80;4.00;;;4.40;1.00;5.50;99089.00;;;;4989201;28;20461;-75
2021/12/05 06:31:51;;;;;;;8.73;4.80;;;4.40;1.00;5.50;99071.00;;;;4980102;28;20481;-75
2021/12/05 06:37:28;;;;;;;8.97;4.17;;;4.30;1.00;5.30;99090.00;;;;4979362;28;20438;-74
2021/12/05 06:40:21;;;;;;;7.97;3.93;;;4.30;1.00;5.40;99091.00;;;;4991644;28;20449;-76
2021/12/05 06:43:00;;;;;;;4.47;3.67;;;4.30;1.00;5.50;99135.00;;;;4988516;28;20439;-75
2021/12/05 06:48:15;;;;;;;8.13;5.00;;;4.30;1.00;5.50;99121.00;;;;4997761;28;20444;-76
2021/12/05 06:50:44;;;;;;;7.27;4.57;;;4.30;1.00;5.60;99133.00;;;;4991863;28;20517;-75
2021/12/05 06:53:12;;;;;;;13.70;5.40;;;4.30;1.00;5.60;99140.00;;;;5015674;28;20935;-79
2021/12/05 06:55:41;;;;;;;12.30;4.90;;;4.40;1.00;5.70;99140.00;;;;5021726;28;20470;-75
2021/12/05 06:58:12;;;;;;;8.80;4.97;;;4.40;1.00;5.80;99147.00;;;;5000422;28;20509;-76
2021/12/05 07:00:40;;;;;;;8.00;4.97;;;4.50;1.00;5.90;99151.00;;;;5008368;28;20483;-76
2021/12/05 07:03:10;;;;;;;8.37;5.67;;;4.50;1.00;6.00;99152.00;;;;5015085;28;20445;-79
2021/12/05 07:05:49;;;;;;;10.77;5.13;;;4.60;1.00;6.10;99157.00;;;;5016931;28;20913;-78
2021/12/05 07:08:19;;;;;;;9.30;5.40;;;4.60;1.00;6.10;99153.00;;;;5007851;28;20442;-76
2021/12/05 07:10:54;;;;;;;9.73;4.70;;;4.60;1.00;6.20;99151.00;;;;5003311;28;20466;-77
2021/12/05 07:16:25;;;;;;;8.20;5.37;;;4.60;1.00;6.30;99160.00;;;;4925114;29;20524;-77
2021/12/05 07:19:14;;;;;;;11.83;5.70;;;4.60;1.00;6.20;99157.00;;;;4995814;28;20514;-74
2021/12/05 07:21:48;;;;;;;6.63;5.50;;;4.60;1.00;6.30;99155.00;;;;4988110;28;20554;-75
2021/12/05 07:24:31;;;;;;;8.93;5.50;;;4.60;1.00;6.30;99150.00;;;;4987329;28;20481;-75
2021/12/05 07:40:57;;;;;;;10.50;5.80;;;4.70;1.00;6.20;99180.00;;;;4958193;29;20487;-79
2021/12/05 07:43:26;;;;;;;12.50;6.13;;;4.60;1.00;6.10;99157.00;;;;4952571;29;20557;-79
2021/12/05 07:45:57;;;;;;;11.03;6.10;;;4.50;1.00;6.00;99176.00;;;;4949570;29;20467;-78
2021/12/05 07:48:31;;;;;;;11.67;4.93;;;4.50;1.00;6.00;99175.00;;;;4957470;29;20449;-80
2021/12/05 07:51:09;;;;;;;7.10;4.20;;;4.50;1.00;6.00;99189.00;;;;4949853;29;20484;-78
2021/12/05 07:53:49;;;;;;;8.13;4.43;;;4.70;1.00;6.10;99166.00;;;;4954735;29;20471;-79
2021/12/05 07:56:38;;;;;;;10.17;5.07;;;4.80;1.00;6.30;99167.00;;;;4963371;28;20474;-80
2021/12/05 07:59:24;;;;;;;8.90;4.30;;;4.80;1.00;6.50;99171.00;;;;4969019;29;20509;-78
2021/12/05 08:15:48;;;;;;;9.33;5.00;;;5.00;1.00;6.60;99184.00;;;;4949330;28;20567;-79
2021/12/05 08:18:16;;;;;;;9.90;4.00;;;5.00;1.00;6.70;99181.00;;;;4961441;29;20471;-80
2021/12/05 08:20:46;;;;;;;8.20;3.67;;;5.10;1.00;6.90;99186.00;;;;4960945;29;20476;-79
2021/12/05 08:23:16;;;;;;;6.27;3.20;;;5.30;1.00;7.00;99176.00;;;;4957363;29;20460;-79
2021/12/05 08:25:53;;;;;;;6.10;3.93;;;5.50;1.00;7.20;99189.00;;;;4959292;29;20463;-78
2021/12/05 08:28:34;;;;;;;7.43;4.00;;;5.60;1.00;7.20;99178.00;;;;4959678;29;20868;-79
2021/12/05 08:31:11;;;;;;;10.30;4.87;;;5.70;1.00;7.30;99188.00;;;;4954757;29;20511;-79
2021/12/05 08:33:53;;;;;;;8.93;3.60;;;5.80;1.00;7.40;99143.00;;;;4955060;28;20519;-79
2021/12/05 09:26:50;;;;;;;5.50;2.90;;;6.10;1.00;7.60;99216.00;;;;4962444;28;20473;-79
2021/12/05 09:29:55;;;;;;;7.47;3.70;;;6.30;1.00;7.70;99216.00;;;;4950746;29;20631;-79
2021/12/05 10:06:53;;;;;;;6.93;3.00;;;7.70;1.00;9.20;99221.00;;;;5012784;28;20500;-78
2021/12/05 10:09:41;;;;;;;6.40;3.10;;;8.00;1.00;9.00;99191.00;;;;5067880;28;20528;-81
2021/12/05 10:15:24;;;;;;;6.60;2.80;;;8.00;1.00;8.90;99219.00;;;;5004979;28;20486;-80
2021/12/05 10:27:07;;;;;;;6.93;2.63;;;8.30;1.00;9.30;99193.00;;;;5030227;28;20469;-79
2021/12/05 10:38:06;;;;;;;6.23;2.57;;;7.80;1.00;8.40;99189.00;;;;5010930;28;20476;-78
2021/12/05 10:40:44;;;;;;;9.87;2.70;;;7.60;1.00;8.30;99170.00;;;;5007519;28;20502;-78
2021/12/05 10:43:16;;;;;;;7.40;2.60;;;7.60;1.00;8.40;99206.00;;;;5027301;28;20541;-81
2021/12/05 10:45:48;;;;;;;4.43;2.10;;;7.60;1.00;8.30;99186.00;;;;5013587;28;20533;-79
2021/12/05 10:48:27;;;;;;;3.93;1.80;;;7.70;1.00;8.40;99190.00;;;;5018203;28;20481;-78
2021/12/05 10:50:58;;;;;;;5.20;2.77;;;7.80;1.00;8.40;99201.00;;;;5009214;28;21005;-80
2021/12/05 10:53:38;;;;;;;5.40;2.70;;;7.90;1.00;8.70;99180.00;;;;5107968;27;20485;-80
2021/12/05 10:56:16;;;;;;;6.40;2.07;;;8.10;1.00;8.80;99197.00;;;;5107960;28;20465;-79
2021/12/05 10:58:52;;;;;;;4.67;1.70;;;8.20;1.00;8.90;99175.00;;;;5047579;28;20522;-81
2021/12/05 11:01:36;;;;;;;6.03;2.40;;;8.30;1.00;9.00;99170.00;;;;5003113;28;20457;-78
2021/12/05 11:04:08;;;;;;;4.00;1.60;;;8.30;1.00;9.10;99188.00;;;;5012519;28;20503;-79
2021/12/05 11:06:51;;;;;;;4.70;1.80;;;8.50;1.00;9.10;99183.00;;;;4992391;28;20451;-79
2021/12/05 11:09:24;;;;;;;2.83;1.57;;;8.30;1.00;8.90;99178.00;;;;5060455;28;20475;-79
2021/12/05 11:11:56;;;;;;;3.30;1.40;;;8.20;1.00;9.10;99191.00;;;;4983559;28;20454;-80
2021/12/05 11:14:30;;;;;;;2.70;1.47;;;8.20;1.00;8.80;99182.00;;;;4996397;28;20481;-80
2021/12/05 11:17:05;;;;;;;3.37;1.47;;;8.00;1.00;8.80;99194.00;;;;4996440;28;20460;-79
2021/12/05 11:19:39;;;;;;;5.17;1.80;;;7.80;1.00;8.70;99193.00;;;;4996060;28;20486;-80
2021/12/05 11:22:16;;;;;;;3.83;1.70;;;7.70;1.00;9.00;99178.00;;;;4999930;28;20461;-79
2021/12/05 11:24:52;;;;;;;2.93;1.87;;;8.00;1.00;9.30;99172.00;;;;5015765;28;20543;-80
2021/12/05 11:27:31;;;;;;;3.60;1.50;;;8.30;1.00;9.30;99188.00;;;;5005471;28;20458;-80
2021/12/05 11:30:10;;;;;;;4.60;1.80;;;8.30;1.00;8.80;99187.00;;;;5000512;28;20466;-79
2021/12/05 11:32:47;;;;;;;2.60;1.10;;;7.90;1.00;8.60;99198.00;;;;5005112;28;20550;-79
2021/12/05 11:35:33;;;;;;;1.73;1.30;;;7.70;1.00;8.50;99216.00;;;;4999602;28;20466;-78
2021/12/05 11:38:10;;;;;;;2.23;1.40;;;7.60;1.00;8.50;99200.00;;;;4995402;28;20827;-79
2021/12/05 11:40:47;;;;;;;2.50;1.30;;;7.50;1.00;8.40;99203.00;;;;4997252;28;20833;-79
2021/12/05 11:43:20;;;;;;;2.97;1.40;;;7.60;1.00;8.60;99188.00;;;;5002345;28;20541;-79
2021/12/05 11:45:54;;;;;;;3.43;1.40;;;7.60;1.00;8.90;99205.00;;;;5014795;28;21256;-79
2021/12/05 11:48:29;;;;;;;3.33;1.70;;;7.70;1.00;9.00;99207.00;;;;5009234;28;20508;-78
2021/12/05 11:50:58;;;;;;;3.53;1.63;;;7.80;1.00;9.30;99159.00;;;;5005665;28;20473;-79
2021/12/05 11:53:41;;;;;;;4.33;1.50;;;8.00;1.00;9.40;99199.00;;;;5001432;28;20510;-78
2021/12/05 11:56:12;;;;;;;3.93;1.67;;;8.20;1.00;9.50;99220.00;;;;4999531;28;20492;-80
2021/12/05 11:58:40;;;;;;;2.87;1.77;;;8.20;1.00;9.40;99181.00;;;;4988195;28;20909;-78
2021/12/05 12:01:14;;;;;;;2.80;1.53;;;8.20;1.00;9.30;99172.00;;;;5008557;28;20494;-79
2021/12/05 12:03:44;;;;;;;3.40;1.57;;;8.10;1.00;9.10;99195.00;;;;5031845;28;20517;-79
2021/12/05 12:06:19;;;;;;;3.83;1.73;;;8.00;1.00;9.20;99199.00;;;;4997438;28;20442;-80
2021/12/05 12:08:49;;;;;;;5.60;1.80;;;8.10;1.00;9.50;99181.00;;;;5038164;28;20469;-78
2021/12/05 12:11:17;;;;;;;5.03;1.90;;;8.50;1.00;9.80;99156.00;;;;5009731;28;20522;-81
2021/12/05 12:13:47;;;;;;;2.27;1.50;;;8.70;1.00;9.50;99183.00;;;;5005392;28;20454;-79
2021/12/05 12:16:16;;;;;;;4.67;1.77;;;8.50;1.00;9.60;99190.00;;;;5002413;28;20478;-79
2021/12/05 12:18:48;;;;;;;2.93;1.60;;;8.40;1.00;9.70;99181.00;;;;4997637;28;20881;-79
2021/12/05 12:21:20;;;;;;;3.60;1.43;;;8.40;1.00;9.80;99200.00;;;;4983141;28;20455;-79
2021/12/05 12:23:52;;;;;;;3.73;1.43;;;8.50;1.00;9.80;99191.00;;;;5096861;28;20473;-78
2021/12/05 12:26:22;;;;;;;2.30;1.20;;;8.50;1.00;10.00;99166.00;;;;5094515;28;20457;-79
2021/12/05 12:28:52;;;;;;;3.03;1.40;;;8.60;1.00;9.70;99173.00;;;;5000654;28;20452;-81
2021/12/05 12:31:31;;;;;;;2.60;1.10;;;8.60;1.00;9.50;99176.00;;;;5014789;28;20445;-82
2021/12/05 12:34:06;;;;;;;2.70;1.40;;;8.40;1.00;9.50;99147.00;;;;5004208;28;20498;-78
2021/12/05 12:36:38;;;;;;;3.50;1.40;;;8.10;1.00;9.10;99150.00;;;;4997652;28;20552;-80
2021/12/05 12:39:27;;;;;;;3.90;1.67;;;8.00;1.00;8.80;99123.00;;;;4998470;28;20463;-79
2021/12/05 12:42:13;;;;;;;4.73;1.73;;;7.90;1.00;8.80;99181.00;;;;5000206;28;21017;-79
2021/12/05 12:45:08;;;;;;;2.70;1.30;;;7.60;1.00;8.60;99195.00;;;;5097436;28;20458;-78
2021/12/05 12:47:41;;;;;;;2.83;1.50;;;7.50;1.00;8.60;99194.00;;;;4991562;28;20472;-82
2021/12/05 12:50:36;;;;;;;3.47;1.30;;;7.40;1.00;8.50;99192.00;;;;4996560;28;20501;-79
2021/12/05 12:53:15;;;;;;;3.83;1.70;;;7.30;1.00;8.40;99140.00;;;;5008573;28;20465;-80
2021/12/05 12:55:53;;;;;;;3.07;2.10;;;7.30;1.00;8.50;99201.00;;;;4988360;28;20470;-79
2021/12/05 12:58:46;;;;;;;4.07;2.43;;;7.40;1.00;8.30;99203.00;;;;4996576;28;20541;-80
2021/12/05 13:01:42;;;;;;;4.27;2.10;;;7.30;1.00;8.20;99205.00;;;;5031081;28;20470;-77
2021/12/05 13:04:39;;;;;;;3.77;1.70;;;7.20;1.00;8.40;99188.00;;;;5004786;28;20447;-80
2021/12/05 13:10:09;;;;;;;3.70;1.90;;;7.50;1.00;8.90;99211.00;;;;5006648;28;20467;-78
2021/12/05 13:12:58;;;;;;;4.33;1.80;;;7.70;1.00;8.60;99208.00;;;;5021139;28;20534;-80
2021/12/05 13:15:38;;;;;;;2.73;1.87;;;7.50;1.00;8.70;99180.00;;;;5003303;28;20483;-79
2021/12/05 13:18:25;;;;;;;5.67;1.70;;;7.50;1.00;8.70;99218.00;;;;5007203;28;20489;-79
2021/12/05 13:20:58;;;;;;;4.03;2.43;;;7.50;1.00;8.80;99207.00;;;;4997015;28;20506;-81
2021/12/05 13:23:37;;;;;;;3.50;1.97;;;7.50;1.00;8.70;99209.00;;;;4995555;28;20450;-79
2021/12/05 13:26:23;;;;;;;4.83;2.23;;;7.60;1.00;8.70;99218.00;;;;4995081;28;20865;-79
2021/12/05 13:28:56;;;;;;;3.10;2.13;;;7.60;1.00;8.80;99221.00;;;;5003736;28;20447;-79
2021/12/05 13:31:40;;;;;;;4.20;2.40;;;7.60;1.00;9.10;99159.00;;;;5022895;28;20455;-81
2021/12/05 13:34:54;;;;;;;4.03;2.27;;;7.80;1.00;9.00;99219.00;;;;4993400;28;20576;-81
2021/12/05 13:37:30;;;;;;;2.83;1.80;;;7.80;1.00;9.00;99227.00;;;;5038228;28;20931;-81
2021/12/05 13:40:19;;;;;;;1.93;1.73;;;7.80;1.00;8.80;99230.00;;;;5023782;28;20492;-80
2021/12/05 13:42:52;;;;;;;3.77;2.00;;;7.70;1.00;8.70;99201.00;;;;4992875;28;20424;-80
2021/12/05 13:45:35;;;;;;;3.50;2.10;;;7.60;1.00;8.60;99226.00;;;;5011755;28;20514;-79
2021/12/05 13:48:21;;;;;;;4.87;1.97;;;7.50;1.00;8.60;99198.00;;;;5015864;28;20607;-81
2021/12/05 13:51:01;;;;;;;3.17;2.13;;;7.30;1.00;8.50;99080.00;;;;4998281;28;20478;-81
2021/12/05 13:53:38;;;;;;;6.07;3.23;;;7.20;1.00;8.70;99200.00;;;;5060923;28;20479;-81
2021/12/05 13:56:20;;;;;;;2.63;1.93;;;7.50;1.00;8.60;99230.00;;;;5026729;28;20480;-81
2021/12/05 13:58:51;;;;;;;2.53;1.70;;;7.40;1.00;8.60;99197.00;;;;5034666;28;20466;-82
2021/12/05 14:01:25;;;;;;;4.23;2.30;;;7.40;1.00;8.90;99195.00;;;;5011912;28;20462;-81
2021/12/05 14:04:11;;;;;;;3.13;2.00;;;7.50;1.00;8.80;99269.00;;;;5011690;28;20455;-80
2021/12/05 14:06:53;;;;;;;5.73;2.30;;;7.40;1.00;8.90;99256.00;;;;5014823;28;20450;-81
2021/12/05 14:09:40;;;;;;;4.50;2.30;;;7.40;1.00;9.00;99197.00;;;;5025269;28;20538;-81
2021/12/05 14:12:17;;;;;;;6.90;2.20;;;7.50;1.00;9.00;99240.00;;;;5004033;28;21355;-82
2021/12/05 14:14:49;;;;;;;4.40;2.40;;;7.60;1.00;9.10;99240.00;;;;5028686;28;20462;-81
2021/12/05 14:17:22;;;;;;;3.20;2.07;;;7.60;1.00;9.10;99262.00;;;;5004410;28;20446;-82
2021/12/05 14:19:54;;;;;;;4.87;1.90;;;7.70;1.00;9.10;99269.00;;;;5007169;28;20466;-82
2021/12/05 14:22:25;;;;;;;2.10;1.40;;;7.70;1.00;9.10;99244.00;;;;5006658;28;20443;-81
2021/12/05 14:24:58;;;;;;;2.17;1.27;;;7.60;1.00;9.00;99273.00;;;;5013713;28;20467;-81
2021/12/05 14:27:32;;;;;;;3.07;1.20;;;7.50;1.00;8.90;99292.00;;;;5030512;28;20515;-81
2021/12/05 14:30:04;;;;;;;3.17;1.20;;;7.50;1.00;8.80;99236.00;;;;5000973;28;20482;-80
2021/12/05 14:32:35;;;;;;;3.27;1.50;;;7.40;1.00;8.60;99292.00;;;;4997100;28;21138;-77
2021/12/05 14:35:09;;;;;;;4.30;1.40;;;7.40;1.00;8.70;99308.00;;;;5092289;28;20656;-81
2021/12/05 14:37:41;;;;;;;2.83;1.20;;;7.40;1.00;8.60;99312.00;;;;5007840;28;20468;-80
2021/12/05 14:40:12;;;;;;;2.90;1.40;;;7.30;1.00;8.70;99280.00;;;;5024542;28;20512;-81
2021/12/05 14:42:45;;;;;;;2.43;1.50;;;7.30;1.00;8.70;99307.00;;;;5107491;28;20539;-82
2021/12/05 14:45:18;;;;;;;2.40;1.50;;;7.30;1.00;8.70;99311.00;;;;5027085;28;20525;-80
2021/12/05 14:47:49;;;;;;;2.43;1.30;;;7.30;1.00;8.70;99291.00;;;;5075602;28;20463;-79
2021/12/05 14:50:20;;;;;;;4.70;1.47;;;7.30;1.00;8.70;99323.00;;;;5006605;28;20505;-80
2021/12/05 14:52:52;;;;;;;2.17;1.50;;;7.30;1.00;8.70;99321.00;;;;5003545;28;20455;-81
2021/12/05 14:55:24;;;;;;;2.60;1.50;;;7.30;1.00;8.70;99296.00;;;;5004056;28;20478;-81
2021/12/05 14:57:56;;;;;;;4.10;1.50;;;7.20;1.00;8.60;99340.00;;;;5001873;28;20548;-81
2021/12/05 15:00:32;;;;;;;2.20;1.40;;;7.20;1.00;8.60;99345.00;;;;5102804;28;20478;-80
2021/12/05 15:03:02;;;;;;;3.77;1.90;;;7.00;1.00;8.70;99360.00;;;;4996139;28;20458;-82
2021/12/05 15:05:32;;;;;;;2.33;1.20;;;7.10;1.00;8.70;99333.00;;;;5000046;28;20476;-82
2021/12/05 15:08:03;;;;;;;3.83;1.57;;;7.30;1.00;8.60;99366.00;;;;5004699;28;20485;-82
2021/12/05 15:10:31;;;;;;;5.30;1.40;;;7.10;1.00;8.60;99348.00;;;;5000419;28;20834;-82
2021/12/05 15:13:02;;;;;;;2.63;1.53;;;7.10;1.00;8.60;99352.00;;;;5095089;28;20972;-82
2021/12/05 15:15:31;;;;;;;3.67;1.63;;;7.10;1.00;8.60;99337.00;;;;4998324;28;20458;-83
2021/12/05 15:18:00;;;;;;;3.47;1.80;;;7.10;1.00;8.70;99361.00;;;;5009943;28;20435;-81
2021/12/05 15:20:39;;;;;;;2.23;1.50;;;7.10;1.00;8.70;99327.00;;;;5003993;28;20467;-81
2021/12/05 15:23:11;;;;;;;3.20;1.90;;;7.10;1.00;8.70;99333.00;;;;4995515;28;20465;-81
2021/12/05 15:25:43;;;;;;;2.10;1.47;;;7.00;1.00;8.70;99348.00;;;;5018804;28;20790;-81
2021/12/05 15:28:15;;;;;;;2.33;1.60;;;7.10;1.00;8.70;99318.00;;;;4998326;28;20440;-82
2021/12/05 15:30:47;;;;;;;5.03;1.70;;;7.00;1.00;8.60;99338.00;;;;5006396;28;20509;-81
2021/12/05 15:33:19;;;;;;;3.53;1.50;;;7.00;1.00;8.50;99248.00;;;;5066821;28;20471;-81
2021/12/05 15:35:50;;;;;;;3.20;1.70;;;7.00;1.00;8.50;99370.00;;;;4999931;28;20512;-82
2021/12/05 15:38:24;;;;;;;3.00;1.70;;;7.00;1.00;8.40;99380.00;;;;4993680;28;20460;-81
2021/12/05 15:41:02;;;;;;;3.23;2.23;;;7.00;1.00;8.30;99377.00;;;;5012408;28;21147;-80
2021/12/05 15:43:35;;;;;;;4.10;2.60;;;6.90;1.00;8.30;99385.00;;;;5001180;28;20484;-80
2021/12/05 15:46:07;;;;;;;3.53;1.80;;;6.90;1.00;8.30;99345.00;;;;4995491;28;20538;-80
2021/12/05 15:48:38;;;;;;;3.00;2.37;;;6.80;1.00;8.20;99380.00;;;;5029531;28;20474;-80
2021/12/05 15:51:11;;;;;;;3.77;1.90;;;6.80;1.00;8.20;99365.00;;;;5100754;28;20459;-80
2021/12/05 15:53:41;;;;;;;3.97;2.33;;;6.80;1.00;8.10;99386.00;;;;5008723;28;20524;-80
2021/12/05 15:56:13;;;;;;;3.33;1.83;;;6.80;1.00;8.10;99355.00;;;;5003290;28;20505;-81
2021/12/05 15:58:59;;;;;;;3.43;2.17;;;6.80;1.00;8.20;99372.00;;;;5003388;28;20458;-80
2021/12/05 16:01:29;;;;;;;2.87;1.80;;;6.80;1.00;8.10;99399.00;;;;5052708;28;20458;-82
2021/12/05 16:04:01;;;;;;;3.40;2.13;;;6.80;1.00;8.20;99408.00;;;;5003771;28;20447;-81